Time;durP1;ratioP1;P1;durP2;ratioP2;P2;SDS_P1;SDS_P2;PMS_P1;PMS_P2;Temp;Humidity;BMP_temperature;BMP_pressure;BME280_temperature;BME280_humidity;BME280_pressure;Samples;Min_cycle;Max_cycle;Signal;HPM_P1;HPM_P2
2022/05/05 00:01:34;;;;;;;13.83;8.33;;;;;;;11.79;100.00;99404.44;5013731;28;20163;-83
2022/05/05 00:04:01;;;;;;;14.97;8.60;;;;;;;12.90;100.00;99598.28;5013738;28;20190;-83
2022/05/05 00:06:29;;;;;;;13.97;9.00;;;;;;;12.96;100.00;99617.97;5013810;28;20167;-82
2022/05/05 00:08:55;;;;;;;12.53;8.00;;;;;;;12.90;100.00;99612.66;5014840;28;20213;-83
2022/05/05 00:14:24;;;;;;;10.77;8.00;;;;;;;12.75;100.00;99589.19;4994525;28;21219;-82
2022/05/05 00:17:03;;;;;;;11.27;8.27;;;;;;;12.44;100.00;99534.69;4994031;28;20167;-82
2022/05/05 00:19:32;;;;;;;10.97;7.13;;;;;;;12.89;100.00;99621.97;4993691;28;20262;-82
2022/05/05 00:21:58;;;;;;;11.53;7.77;;;;;;;12.60;100.00;99575.94;4993709;28;20163;-82
2022/05/05 00:24:24;;;;;;;20.37;11.20;;;;;;;12.71;100.00;99600.94;4992711;28;20172;-82
2022/05/05 00:26:49;;;;;;;15.53;9.10;;;;;;;12.51;100.00;99573.03;4993534;28;20258;-82
2022/05/05 00:29:15;;;;;;;11.40;7.47;;;;;;;12.70;100.00;99606.81;4993546;28;20203;-83
2022/05/05 00:31:42;;;;;;;10.63;6.83;;;;;;;12.71;100.00;99611.09;4993782;28;20168;-83
2022/05/05 00:34:07;;;;;;;7.97;6.20;;;;;;;12.65;100.00;99615.06;4993695;28;21212;-82
2022/05/05 00:36:32;;;;;;;9.00;6.37;;;;;;;12.59;100.00;99609.75;4993621;28;20226;-83
2022/05/05 00:38:58;;;;;;;9.60;6.70;;;;;;;11.99;100.00;99537.13;4993961;28;20254;-82
2022/05/05 00:41:23;;;;;;;9.87;7.07;;;;;;;12.16;100.00;99589.44;4993696;28;20175;-82
2022/05/05 00:43:49;;;;;;;11.13;6.50;;;;;;;12.14;100.00;99589.34;4994159;28;20645;-82
2022/05/05 00:46:15;;;;;;;9.23;6.13;;;;;;;11.76;100.00;99536.19;4993541;28;20175;-82
2022/05/05 00:48:43;;;;;;;7.17;5.90;;;;;;;12.21;100.00;99613.31;4993161;28;20265;-82
2022/05/05 00:51:09;;;;;;;7.47;5.37;;;;;;;12.18;100.00;99605.56;4993247;28;21263;-82
2022/05/05 00:53:35;;;;;;;9.23;5.70;;;;;;;12.29;100.00;99615.34;4992980;28;20727;-83
2022/05/05 00:56:19;;;;;;;7.80;5.43;;;;;;;12.22;100.00;99617.59;4993061;28;20258;-83
2022/05/05 00:58:45;;;;;;;7.47;5.60;;;;;;;12.16;100.00;99623.28;4994281;28;20178;-84
2022/05/05 01:01:17;;;;;;;8.33;5.20;;;;;;;11.79;100.00;99554.94;5000410;28;20194;-82
2022/05/05 01:03:43;;;;;;;9.63;5.70;;;;;;;11.57;100.00;99499.03;4992851;28;20171;-82
2022/05/05 01:06:08;;;;;;;6.97;5.43;;;;;;;11.68;100.00;99534.97;4993029;28;20195;-83
2022/05/05 01:08:34;;;;;;;9.17;5.63;;;;;;;11.52;100.00;99497.13;4992997;28;20282;-83
2022/05/05 01:11:00;;;;;;;8.37;6.07;;;;;;;11.89;100.00;99551.13;4992752;28;20163;-83
2022/05/05 01:13:27;;;;;;;8.53;5.70;;;;;;;11.25;100.00;99459.69;5002925;28;20221;-83
2022/05/05 01:15:53;;;;;;;8.47;5.80;;;;;;;12.24;100.00;99618.50;5012294;28;20185;-83
2022/05/05 01:18:18;;;;;;;8.67;6.23;;;;;;;12.05;100.00;99616.91;5012543;28;20261;-84
2022/05/05 01:20:46;;;;;;;8.37;6.27;;;;;;;11.81;100.00;99615.91;5012020;28;20178;-83
2022/05/05 01:23:13;;;;;;;10.57;6.67;;;;;;;11.47;100.00;99536.63;5012086;28;20290;-82
2022/05/05 01:28:22;;;;;;;9.70;6.77;;;;;;;12.03;100.00;99623.56;5012487;28;20209;-83
2022/05/05 01:30:48;;;;;;;10.03;6.33;;;;;;;11.86;100.00;99614.41;5012295;28;20167;-82
2022/05/05 01:33:16;;;;;;;8.77;6.13;;;;;;;11.75;100.00;99630.84;5012000;28;20182;-82
2022/05/05 01:35:45;;;;;;;9.17;6.40;;;;;;;11.77;100.00;99631.78;5012091;28;20179;-82
2022/05/05 01:38:12;;;;;;;9.67;6.50;;;;;;;11.04;100.00;99516.19;5011951;28;20175;-83
2022/05/05 01:40:39;;;;;;;11.13;7.57;;;;;;;11.58;100.00;99611.47;5011823;28;20174;-83
2022/05/05 01:43:06;;;;;;;15.57;9.10;;;;;;;11.72;100.00;99629.06;5011706;28;20226;-83
2022/05/05 01:45:32;;;;;;;14.53;9.60;;;;;;;9.91;100.00;99347.44;5011640;28;20647;-83
2022/05/05 01:47:57;;;;;;;13.57;9.10;;;;;;;11.02;100.00;99528.78;5011819;28;20213;-83
2022/05/05 01:50:25;;;;;;;15.20;9.10;;;;;;;11.10;100.00;99554.44;5012486;28;20174;-81
2022/05/05 01:52:54;;;;;;;11.60;8.33;;;;;;;11.09;100.00;99556.13;5012387;28;20298;-82
2022/05/05 01:55:21;;;;;;;17.03;10.00;;;;;;;11.25;100.00;99588.06;5012020;28;20195;-82
2022/05/05 01:57:46;;;;;;;14.80;9.00;;;;;;;11.24;100.00;99601.53;5011705;28;20233;-82
2022/05/05 02:00:12;;;;;;;16.47;8.47;;;;;;;11.04;100.00;99566.88;5012180;28;20596;-83
2022/05/05 02:02:37;;;;;;;13.30;7.27;;;;;;;11.47;100.00;99643.09;5011766;28;20588;-83
2022/05/05 02:05:03;;;;;;;13.63;7.60;;;;;;;10.89;100.00;99549.31;5011296;28;20233;-82
2022/05/05 02:07:29;;;;;;;13.57;7.80;;;;;;;11.37;100.00;99628.28;5011467;28;20265;-82
2022/05/05 02:09:54;;;;;;;15.30;8.50;;;;;;;9.58;100.00;99325.66;5011749;28;20188;-83
2022/05/05 02:12:19;;;;;;;12.33;8.00;;;;;;;11.12;100.00;99593.41;5009664;28;20167;-82
2022/05/05 02:14:45;;;;;;;14.23;8.57;;;;;;;11.33;100.00;99632.34;5011450;28;20202;-83
2022/05/05 02:17:11;;;;;;;11.67;7.60;;;;;;;11.34;100.00;99641.72;5011510;28;20217;-84
2022/05/05 02:19:36;;;;;;;11.77;7.30;;;;;;;11.19;100.00;99636.81;5011281;28;20617;-83
2022/05/05 02:22:02;;;;;;;10.27;6.80;;;;;;;10.95;100.00;99640.78;5011259;28;20202;-82
2022/05/05 02:24:28;;;;;;;11.50;7.30;;;;;;;10.65;100.00;99591.25;4994119;28;20171;-82
2022/05/05 02:26:53;;;;;;;9.73;7.30;;;;;;;11.03;100.00;99644.53;5011906;28;20171;-82
2022/05/05 02:29:18;;;;;;;13.30;9.20;;;;;;;10.74;100.00;99609.38;5002553;28;20203;-83
2022/05/05 02:31:44;;;;;;;13.30;8.60;;;;;;;10.47;100.00;99576.06;4991793;28;20640;-82
2022/05/05 02:34:09;;;;;;;15.23;9.07;;;;;;;10.97;100.00;99645.91;4991914;28;20544;-83
2022/05/05 02:39:19;;;;;;;13.60;8.67;;;;;;;10.65;100.00;99626.69;4991814;28;20174;-83
2022/05/05 02:41:45;;;;;;;16.13;10.10;;;;;;;10.34;100.00;99600.72;4991722;28;20176;-83
2022/05/05 02:44:10;;;;;;;15.20;9.70;;;;;;;10.27;100.00;99598.72;5009435;28;20284;-83
2022/05/05 02:46:35;;;;;;;16.47;10.77;;;;;;;10.68;100.00;99671.53;5012021;28;20175;-83
2022/05/05 02:49:01;;;;;;;13.83;9.50;;;;;;;10.71;100.00;99667.50;5014345;28;20190;-83
2022/05/05 02:51:26;;;;;;;17.37;10.23;;;;;;;9.85;100.00;99549.41;5016430;28;20170;-82
2022/05/05 02:56:35;;;;;;;18.30;10.17;;;;;;;10.55;100.00;99677.66;5017203;28;20169;-82
2022/05/05 02:59:01;;;;;;;16.77;9.20;;;;;;;9.79;100.00;99609.78;5020087;28;20163;-83
2022/05/05 03:01:26;;;;;;;15.33;8.87;;;;;;;10.05;100.00;99681.09;5015362;28;20205;-83
2022/05/05 03:03:51;;;;;;;15.00;8.97;;;;;;;9.53;100.00;99651.47;5016527;28;20542;-83
2022/05/05 03:06:17;;;;;;;16.33;8.83;;;;;;;9.22;100.00;99608.56;4998977;28;20171;-82
2022/05/05 03:08:42;;;;;;;17.23;9.57;;;;;;;9.60;100.00;99680.44;5017217;28;20195;-82
2022/05/05 03:11:08;;;;;;;15.40;9.30;;;;;;;9.16;100.00;99597.28;5014687;28;20174;-82
2022/05/05 03:13:33;;;;;;;15.40;9.03;;;;;;;9.98;100.00;99699.28;4996560;28;20234;-82
2022/05/05 03:15:58;;;;;;;14.03;9.37;;;;;;;9.73;100.00;99665.09;4998169;28;20183;-82
2022/05/05 03:18:24;;;;;;;17.47;9.47;;;;;;;9.77;100.00;99670.41;4996375;28;20699;-83
2022/05/05 03:20:49;;;;;;;17.10;9.90;;;;;;;9.78;100.00;99669.59;4996125;28;20175;-83
2022/05/05 03:23:14;;;;;;;16.80;10.13;;;;;;;9.71;100.00;99713.06;4996418;28;20175;-82
2022/05/05 03:25:40;;;;;;;18.03;9.83;;;;;;;9.27;100.00;99677.00;4995354;28;20190;-82
2022/05/05 03:28:05;;;;;;;16.30;9.93;;;;;;;9.40;100.00;99709.69;4994913;28;20291;-83
2022/05/05 03:30:31;;;;;;;15.33;10.33;;;;;;;9.14;100.00;99654.41;4996052;28;20639;-83
2022/05/05 03:32:56;;;;;;;16.07;10.10;;;;;;;9.32;100.00;99683.16;4994950;28;20620;-83
2022/05/05 03:35:21;;;;;;;14.93;9.80;;;;;;;9.07;100.00;99659.91;4994948;28;20182;-82
2022/05/05 03:37:47;;;;;;;15.30;9.40;;;;;;;9.50;100.00;99706.91;4977239;28;20197;-82
2022/05/05 03:40:12;;;;;;;14.67;9.53;;;;;;;9.75;100.00;99709.88;4997562;28;20190;-82
2022/05/05 03:42:38;;;;;;;14.87;9.93;;;;;;;9.63;100.00;99647.72;5003161;28;20171;-83
2022/05/05 03:45:04;;;;;;;12.57;8.67;;;;;;;9.79;100.00;99704.22;5013810;28;20229;-82
2022/05/05 03:47:29;;;;;;;15.23;9.43;;;;;;;9.52;100.00;99643.78;5014419;28;20197;-83
2022/05/05 03:49:54;;;;;;;14.57;9.73;;;;;;;9.55;100.00;99629.66;5014431;28;21061;-83
2022/05/05 03:52:20;;;;;;;15.10;10.30;;;;;;;10.05;100.00;99686.16;5019284;28;20178;-83
2022/05/05 03:54:45;;;;;;;18.53;12.10;;;;;;;10.03;100.00;99682.69;4997892;28;20561;-83
2022/05/05 03:57:10;;;;;;;15.97;11.20;;;;;;;10.32;100.00;99713.66;5014298;28;20339;-82
2022/05/05 03:59:36;;;;;;;21.93;13.20;;;;;;;10.46;100.00;99741.41;5007917;28;20238;-83
2022/05/05 04:02:01;;;;;;;19.17;12.47;;;;;;;10.41;100.00;99745.34;5014305;28;20179;-83
2022/05/05 04:04:27;;;;;;;20.80;13.13;;;;;;;10.52;100.00;99745.91;5013476;28;20163;-84
2022/05/05 04:06:53;;;;;;;24.30;15.50;;;;;;;9.97;100.00;99636.84;5013674;28;20808;-83
2022/05/05 04:09:18;;;;;;;20.33;12.40;;;;;;;10.01;100.00;99632.81;5013342;28;20201;-83
2022/05/05 04:11:44;;;;;;;19.80;12.77;;;;;;;10.65;100.00;99736.44;5013351;28;20155;-85
2022/05/05 04:14:09;;;;;;;20.03;13.20;;;;;;;10.32;100.00;99701.00;5013296;28;20163;-82
2022/05/05 04:16:35;;;;;;;28.63;14.93;;;;;;;9.81;100.00;99654.56;4994582;28;20592;-81
2022/05/05 04:19:03;;;;;;;18.13;10.67;;;;;;;9.68;100.00;99649.69;5010824;28;20558;-82
2022/05/05 04:21:28;;;;;;;108.70;60.57;;;;;;;10.09;100.00;99733.59;5010949;28;20178;-83
2022/05/05 04:23:54;;;;;;;48.87;27.50;;;;;;;10.13;100.00;99724.53;5010493;28;20548;-82
2022/05/05 04:26:20;;;;;;;44.17;26.13;;;;;;;10.72;100.00;99759.50;5010837;28;20250;-83
2022/05/05 04:28:48;;;;;;;52.47;32.43;;;;;;;10.70;100.00;99767.03;4992107;28;20255;-83
2022/05/05 04:31:15;;;;;;;53.70;37.40;;;;;;;10.53;100.00;99755.19;4991229;28;20191;-83
2022/05/05 04:33:41;;;;;;;82.37;51.57;;;;;;;10.75;100.00;99764.72;4997782;28;20258;-82
2022/05/05 04:36:08;;;;;;;126.90;73.13;;;;;;;10.44;100.00;99669.56;5011002;28;20260;-83
2022/05/05 04:38:33;;;;;;;36.83;22.83;;;;;;;10.29;100.00;99597.13;5010194;28;20181;-85
2022/05/05 04:40:59;;;;;;;65.97;40.33;;;;;;;11.31;100.00;99764.88;5010555;28;20281;-83
2022/05/05 04:43:24;;;;;;;38.23;23.97;;;;;;;11.00;100.00;99697.59;5010464;28;20309;-83
2022/05/05 04:45:50;;;;;;;64.50;38.70;;;;;;;11.20;100.00;99680.75;5010535;28;20187;-83
2022/05/05 04:48:15;;;;;;;18.93;12.03;;;;;;;12.03;100.00;99768.19;4992333;28;20206;-82
2022/05/05 04:50:41;;;;;;;30.40;19.33;;;;;;;12.23;100.00;99764.00;5010773;28;20193;-83
2022/05/05 04:53:06;;;;;;;26.97;17.63;;;;;;;12.53;100.00;99769.50;5012112;28;20185;-83
2022/05/05 04:55:31;;;;;;;18.80;12.63;;;;;;;11.99;100.00;99634.41;5005720;28;20214;-81
2022/05/05 04:57:57;;;;;;;13.33;8.53;;;;;;;12.99;100.00;99773.13;5010520;28;20207;-83
2022/05/05 05:00:22;;;;;;;9.93;7.30;;;;;;;13.18;100.00;99778.16;5009183;28;20191;-83
2022/05/05 05:02:48;;;;;;;13.07;8.53;;;;;;;12.93;100.00;99716.97;5010415;28;20546;-83
2022/05/05 05:05:14;;;;;;;12.17;8.67;;;;;;;13.04;100.00;99703.00;5010829;28;20179;-83
2022/05/05 05:07:39;;;;;;;23.60;16.33;;;;;;;13.23;100.00;99746.16;4999661;28;20237;-84
2022/05/05 05:10:06;;;;;;;18.73;10.33;;;;;;;13.41;100.00;99795.16;4995596;28;20186;-84
2022/05/05 05:12:31;;;;;;;13.50;9.60;;;;;;;13.49;100.00;99792.91;5010448;28;20698;-84
2022/05/05 05:14:56;;;;;;;13.90;9.67;;;;;;;13.54;100.00;99779.56;4997742;28;20182;-82
2022/05/05 05:17:22;;;;;;;13.23;9.17;;;;;;;13.39;100.00;99742.50;4999547;28;20225;-82
2022/05/05 05:19:47;;;;;;;13.73;9.10;;;;;;;13.38;100.00;99725.50;5010272;28;20667;-83
2022/05/05 05:22:13;;;;;;;16.50;9.73;;;;;;;13.69;100.00;99783.47;5009459;28;20214;-83
2022/05/05 05:24:38;;;;;;;15.27;9.07;;;;;;;13.29;100.00;99710.78;5009753;28;20178;-82
2022/05/05 05:27:04;;;;;;;11.80;8.80;;;;;;;12.19;100.00;99506.66;5007818;28;20710;-85
2022/05/05 05:29:30;;;;;;;15.23;10.63;;;;;;;12.40;100.00;99537.94;5009525;28;20252;-85
2022/05/05 05:31:55;;;;;;;13.07;9.67;;;;;;;13.50;100.00;99673.44;5003447;28;20871;-85
2022/05/05 05:34:21;;;;;;;14.07;9.73;;;;;;;13.81;99.34;99721.19;5004895;28;20185;-83
2022/05/05 05:36:49;;;;;;;15.30;11.27;;;;;;;12.77;99.68;99544.41;5006873;28;20182;-85
2022/05/05 05:39:18;;;;;;;21.17;14.23;;;;;;;13.92;100.00;99801.34;4990752;28;20195;-84
2022/05/05 05:41:44;;;;;;;14.37;10.90;;;;;;;13.97;100.00;99791.31;4991297;28;20255;-85
2022/05/05 05:44:11;;;;;;;17.50;11.37;;;;;;;13.28;99.30;99611.56;5008580;28;20222;-84
2022/05/05 05:46:36;;;;;;;14.80;10.03;;;;;;;13.43;97.76;99605.34;5008483;28;20721;-86
2022/05/05 05:49:02;;;;;;;14.63;10.20;;;;;;;14.81;97.30;99813.84;4992694;28;20210;-85
2022/05/05 05:51:28;;;;;;;13.13;9.97;;;;;;;13.90;97.36;99669.75;5010203;28;20206;-86
2022/05/05 05:53:54;;;;;;;32.50;17.50;;;;;;;14.00;100.00;99718.50;5008159;28;20190;-84
2022/05/05 05:56:19;;;;;;;19.70;12.70;;;;;;;14.32;100.00;99818.06;5011202;28;20189;-88
2022/05/05 05:58:45;;;;;;;21.77;12.73;;;;;;;14.33;100.00;99825.78;5012243;28;20194;-85
2022/05/05 06:01:10;;;;;;;18.80;13.00;;;;;;;14.06;100.00;99817.13;5008198;28;20183;-84
2022/05/05 06:03:54;;;;;;;15.57;11.27;;;;;;;14.31;100.00;99819.72;5008954;28;20196;-84
2022/05/05 06:06:21;;;;;;;24.00;13.07;;;;;;;14.48;100.00;99779.59;5008760;28;20192;-83
2022/05/05 06:08:46;;;;;;;12.40;10.07;;;;;;;14.00;99.94;99664.16;5008339;28;20214;-82
2022/05/05 06:11:13;;;;;;;17.67;10.43;;;;;;;15.28;99.19;99830.69;4976326;28;20187;-83
2022/05/05 06:13:39;;;;;;;25.90;14.07;;;;;;;15.14;99.88;99824.28;4992878;28;20535;-83
2022/05/05 06:16:06;;;;;;;20.20;12.07;;;;;;;13.75;98.38;99568.31;4999615;28;20246;-85
2022/05/05 06:18:32;;;;;;;14.37;10.50;;;;;;;14.10;98.07;99582.19;5008822;28;20429;-84
2022/05/05 06:20:58;;;;;;;16.00;9.90;;;;;;;15.63;96.26;99831.84;5010200;28;20559;-84
2022/05/05 06:23:23;;;;;;;15.03;10.27;;;;;;;14.99;96.02;99706.50;5012113;28;20179;-82
2022/05/05 06:25:49;;;;;;;10.60;8.70;;;;;;;16.07;93.00;99828.88;5011658;28;20187;-86
2022/05/05 06:28:14;;;;;;;12.57;9.20;;;;;;;16.25;92.36;99823.44;5007455;28;20218;-85
2022/05/05 06:30:39;;;;;;;14.47;10.30;;;;;;;16.06;93.21;99818.63;5009413;28;20666;-86
2022/05/05 06:33:05;;;;;;;10.97;9.00;;;;;;;16.42;90.22;99830.75;5008330;28;20190;-86
2022/05/05 06:35:30;;;;;;;12.63;9.20;;;;;;;16.45;89.95;99815.47;5007828;28;20183;-84
2022/05/05 06:37:56;;;;;;;15.07;10.23;;;;;;;16.61;89.48;99828.72;5008857;28;20261;-86
2022/05/05 06:40:21;;;;;;;9.80;7.87;;;;;;;16.68;86.98;99823.78;5008633;28;20190;-85
2022/05/05 06:42:48;;;;;;;11.83;8.40;;;;;;;16.97;85.48;99822.84;4990615;28;20190;-83
2022/05/05 06:45:14;;;;;;;9.93;8.00;;;;;;;16.85;86.29;99832.78;5008534;28;20281;-85
2022/05/05 06:47:40;;;;;;;10.60;7.60;;;;;;;16.79;85.44;99794.25;4991220;28;20297;-85
2022/05/05 06:50:06;;;;;;;10.53;7.83;;;;;;;16.97;84.66;99801.53;4991800;28;20193;-85
2022/05/05 06:52:31;;;;;;;10.23;7.90;;;;;;;16.74;83.47;99739.56;5014551;28;20201;-86
2022/05/05 06:54:57;;;;;;;9.87;6.07;;;;;;;17.29;80.26;99835.53;5017529;28;20361;-86
2022/05/05 06:57:23;;;;;;;12.20;6.23;;;;;;;17.64;80.41;99834.69;5008615;28;20273;-83
2022/05/05 06:59:48;;;;;;;6.93;5.57;;;;;;;16.75;81.69;99784.78;4976659;28;20183;-85
2022/05/05 07:02:14;;;;;;;7.53;5.97;;;;;;;15.45;83.28;99599.03;4989040;28;20190;-85
2022/05/05 07:07:23;;;;;;;10.33;6.77;;;;;;;17.13;82.92;99783.16;5007922;28;20714;-85
2022/05/05 07:12:33;;;;;;;9.57;6.40;;;;;;;17.98;79.72;99829.47;5003579;28;20190;-84
2022/05/05 07:14:59;;;;;;;8.43;6.30;;;;;;;18.14;79.73;99834.09;4980648;28;20187;-82
2022/05/05 07:17:25;;;;;;;6.57;5.67;;;;;;;17.82;77.77;99727.53;4988463;28;20198;-85
2022/05/05 07:19:52;;;;;;;8.10;5.60;;;;;;;17.80;75.62;99639.53;5007665;28;20181;-84
2022/05/05 07:22:17;;;;;;;6.23;5.07;;;;;;;18.36;74.99;99820.00;5008674;28;20242;-84
2022/05/05 07:24:43;;;;;;;5.77;5.00;;;;;;;17.83;77.42;99825.72;5007885;28;20274;-83
2022/05/05 07:27:10;;;;;;;6.53;5.70;;;;;;;18.02;78.98;99828.69;5008380;28;20690;-84
2022/05/05 07:29:37;;;;;;;7.67;5.30;;;;;;;18.76;75.77;99835.31;5007380;28;20234;-83
2022/05/05 07:32:03;;;;;;;8.40;5.33;;;;;;;18.18;75.37;99723.09;5008224;28;20241;-86
2022/05/05 07:34:29;;;;;;;6.70;5.43;;;;;;;18.96;74.75;99838.22;5009935;28;20659;-85
2022/05/05 07:36:55;;;;;;;5.70;5.10;;;;;;;18.92;74.13;99835.59;5007318;28;20186;-84
2022/05/05 07:39:20;;;;;;;6.53;5.07;;;;;;;19.71;71.84;99830.88;4994748;28;20194;-84
2022/05/05 07:41:45;;;;;;;6.17;4.90;;;;;;;19.81;70.05;99835.31;5012388;28;20186;-85
2022/05/05 07:44:11;;;;;;;7.60;5.80;;;;;;;19.52;69.21;99822.88;5012389;28;20214;-83
2022/05/05 07:46:36;;;;;;;6.57;5.10;;;;;;;19.67;70.53;99812.81;5012446;28;20183;-86
2022/05/05 07:49:11;;;;;;;8.27;6.40;;;;;;;19.97;69.84;99832.09;4992082;28;20252;-86
2022/05/05 07:51:37;;;;;;;9.67;6.27;;;;;;;19.40;68.36;99737.13;5011779;28;20182;-87
2022/05/05 07:56:47;;;;;;;8.87;5.93;;;;;;;19.31;70.64;99790.88;5012168;28;20674;-85
2022/05/05 07:59:12;;;;;;;9.03;5.80;;;;;;;19.05;70.18;99779.34;5011251;28;20190;-84
2022/05/05 08:01:38;;;;;;;14.00;9.00;;;;;;;19.96;69.39;99842.34;5014402;28;20225;-84
2022/05/05 08:04:05;;;;;;;13.10;10.13;;;;;;;19.45;69.37;99839.06;5016634;28;20241;-86
2022/05/05 08:06:31;;;;;;;14.03;8.60;;;;;;;20.19;69.37;99832.38;5015546;28;20190;-83
2022/05/05 08:08:57;;;;;;;5.33;4.60;;;;;;;20.24;65.93;99774.16;5011323;28;20614;-86
2022/05/05 08:11:22;;;;;;;7.17;4.17;;;;;;;20.28;67.24;99817.06;5011393;28;20270;-85
2022/05/05 08:13:47;;;;;;;7.47;5.53;;;;;;;20.48;67.79;99821.59;5011473;28;20262;-84
2022/05/05 08:16:13;;;;;;;5.93;4.47;;;;;;;20.43;67.83;99841.28;4994796;28;20239;-85
2022/05/05 08:18:39;;;;;;;6.60;4.73;;;;;;;20.75;67.25;99843.31;5006291;28;20198;-86
2022/05/05 08:21:06;;;;;;;7.60;4.93;;;;;;;21.17;64.82;99812.84;5008112;28;20225;-85
2022/05/05 08:23:32;;;;;;;6.83;5.70;;;;;;;20.29;63.17;99620.81;5009927;28;20182;-85
2022/05/05 08:28:42;;;;;;;17.53;8.60;;;;;;;21.28;62.86;99792.31;5009342;28;20301;-84
2022/05/05 08:31:10;;;;;;;7.90;5.70;;;;;;;21.30;62.89;99786.31;5010261;28;20254;-85
2022/05/05 08:33:38;;;;;;;8.43;6.10;;;;;;;22.03;60.74;99851.22;5009921;28;20213;-85
2022/05/05 08:36:05;;;;;;;7.70;5.00;;;;;;;21.58;61.61;99726.38;5010036;28;20258;-85
2022/05/05 08:38:31;;;;;;;8.33;5.23;;;;;;;22.10;61.53;99796.22;5010262;28;20179;-85
2022/05/05 08:40:57;;;;;;;6.93;5.27;;;;;;;22.57;60.65;99845.38;5010889;28;20261;-84
2022/05/05 08:43:23;;;;;;;9.47;5.20;;;;;;;21.88;60.66;99753.16;5012080;28;20217;-85
2022/05/05 08:45:50;;;;;;;6.00;5.23;;;;;;;22.11;59.87;99813.44;5010660;28;20178;-85
2022/05/05 08:48:16;;;;;;;6.87;4.93;;;;;;;22.06;60.82;99766.97;5010856;28;20646;-83
2022/05/05 08:50:46;;;;;;;5.73;5.10;;;;;;;22.07;60.13;99760.09;5013398;28;20222;-82
2022/05/05 08:53:16;;;;;;;7.20;5.10;;;;;;;21.64;61.21;99702.34;5025469;28;20269;-85
2022/05/05 08:55:45;;;;;;;6.50;5.13;;;;;;;22.85;58.79;99831.72;5010325;28;20205;-85
2022/05/05 08:58:12;;;;;;;10.53;5.60;;;;;;;22.58;59.48;99718.91;5008287;28;20233;-84
2022/05/05 09:00:37;;;;;;;8.40;4.37;;;;;;;22.32;57.14;99818.66;5008991;28;20186;-84
2022/05/05 09:03:04;;;;;;;5.70;4.00;;;;;;;21.82;55.01;99693.81;5009406;28;20195;-85
2022/05/05 09:05:42;;;;;;;5.57;4.23;;;;;;;22.62;54.46;99833.34;4991866;28;20578;-85
2022/05/05 09:08:10;;;;;;;6.23;4.37;;;;;;;22.89;54.82;99834.28;5002069;28;20271;-84
2022/05/05 09:10:50;;;;;;;4.97;4.23;;;;;;;21.94;55.27;99838.28;5008381;28;20635;-83
2022/05/05 09:13:27;;;;;;;5.03;4.40;;;;;;;21.92;55.54;99832.25;5009111;28;20349;-85
2022/05/05 09:15:53;;;;;;;6.33;3.90;;;;;;;21.66;53.13;99696.34;4997813;28;20198;-86
2022/05/05 09:18:30;;;;;;;6.83;3.97;;;;;;;22.13;51.03;99760.13;5009141;28;20215;-84
2022/05/05 09:20:58;;;;;;;4.80;3.70;;;;;;;22.96;51.17;99759.41;5008771;28;20183;-83
2022/05/05 09:26:27;;;;;;;7.63;4.00;;;;;;;23.89;49.67;99823.91;5009340;28;20193;-86
2022/05/05 09:28:53;;;;;;;4.90;3.97;;;;;;;23.78;48.74;99812.72;5003801;28;20203;-83
2022/05/05 09:31:19;;;;;;;4.00;3.60;;;;;;;23.62;48.63;99776.56;5003286;28;20592;-84
2022/05/05 09:33:45;;;;;;;5.13;3.97;;;;;;;24.06;48.80;99819.50;4990187;28;20184;-84
2022/05/05 09:36:14;;;;;;;6.63;3.83;;;;;;;24.13;47.61;99816.94;4989374;28;20191;-86
2022/05/05 09:38:58;;;;;;;6.50;4.23;;;;;;;23.84;47.03;99815.25;4999977;28;20203;-85
2022/05/05 09:41:24;;;;;;;26.10;5.03;;;;;;;23.64;49.21;99816.19;5008047;28;20191;-84
2022/05/05 09:43:53;;;;;;;5.93;4.70;;;;;;;23.68;48.55;99776.56;5008204;28;20233;-84
2022/05/05 09:46:21;;;;;;;7.13;4.50;;;;;;;24.17;47.38;99809.16;4990047;28;20186;-83
2022/05/05 09:48:47;;;;;;;8.30;4.37;;;;;;;23.84;47.40;99753.19;5007636;28;20210;-85
2022/05/05 09:51:14;;;;;;;6.20;3.90;;;;;;;23.89;45.42;99807.50;5008598;28;20228;-85
2022/05/05 09:59:14;;;;;;;5.43;3.67;;;;;;;23.44;44.30;99650.81;4996995;28;20194;-84
2022/05/05 10:01:41;;;;;;;10.57;4.33;;;;;;;24.41;43.24;99761.56;4992477;28;20187;-85
2022/05/05 10:04:09;;;;;;;9.20;3.90;;;;;;;24.99;39.45;99809.53;4988161;28;20183;-82
2022/05/05 10:06:42;;;;;;;8.83;3.77;;;;;;;25.14;37.84;99780.03;4971373;28;20187;-83
2022/05/05 10:09:13;;;;;;;6.40;3.73;;;;;;;24.90;39.16;99803.56;4993709;28;20219;-83
2022/05/05 10:11:40;;;;;;;4.27;3.50;;;;;;;24.03;39.08;99793.63;5007424;28;20186;-82
2022/05/05 10:14:08;;;;;;;4.63;3.77;;;;;;;23.59;39.85;99792.09;5006737;28;20262;-78
2022/05/05 10:16:36;;;;;;;5.97;4.13;;;;;;;23.87;40.06;99793.72;4992007;28;20602;-77
2022/05/05 10:19:03;;;;;;;5.07;3.83;;;;;;;23.63;39.89;99794.66;5004421;28;20188;-76
2022/05/05 10:22:03;;;;;;;5.63;4.40;;;;;;;23.84;39.41;99785.97;5004811;28;20268;-77
2022/05/05 10:24:30;;;;;;;6.63;3.90;;;;;;;23.82;38.76;99734.25;5004779;28;20273;-77
2022/05/05 10:26:58;;;;;;;5.03;3.60;;;;;;;24.29;37.99;99782.34;5005156;28;20182;-77
2022/05/05 10:29:37;;;;;;;6.37;3.90;;;;;;;24.18;37.69;99764.28;5003223;28;20214;-77
2022/05/05 10:32:06;;;;;;;4.37;3.90;;;;;;;23.76;38.09;99746.38;5004206;28;20238;-76
2022/05/05 10:34:32;;;;;;;4.47;3.97;;;;;;;23.68;38.08;99767.03;5005837;28;20178;-76
2022/05/05 10:37:03;;;;;;;5.40;4.20;;;;;;;23.36;38.24;99755.91;5005111;28;20189;-78
2022/05/05 10:39:50;;;;;;;6.10;4.20;;;;;;;23.41;37.74;99777.47;5004864;28;20179;-77
2022/05/05 10:42:22;;;;;;;6.80;4.27;;;;;;;23.84;39.08;99767.88;4986462;28;20190;-77
2022/05/05 10:45:26;;;;;;;6.23;4.70;;;;;;;23.98;38.01;99766.09;5004892;28;20895;-77
2022/05/05 10:47:55;;;;;;;8.53;4.97;;;;;;;23.45;39.01;99768.84;4925261;29;20627;-76
2022/05/05 10:50:56;;;;;;;9.23;4.40;;;;;;;23.35;39.17;99760.22;4908823;29;20197;-77
2022/05/05 10:53:25;;;;;;;9.53;4.40;;;;;;;24.00;39.40;99762.63;4925738;29;20240;-77
2022/05/05 10:55:50;;;;;;;5.73;4.70;;;;;;;24.24;39.43;99760.81;4925614;29;20274;-77
2022/05/05 10:58:53;;;;;;;6.97;4.87;;;;;;;24.03;39.32;99767.75;4924018;29;20200;-77
2022/05/05 11:01:18;;;;;;;7.33;4.80;;;;;;;23.85;39.77;99749.75;4925213;29;20193;-77
2022/05/05 11:04:04;;;;;;;5.30;4.10;;;;;;;24.51;39.22;99768.41;4922774;29;20309;-78
2022/05/05 11:06:30;;;;;;;7.00;4.80;;;;;;;25.14;39.05;99775.72;4906202;29;20745;-77
2022/05/05 11:08:56;;;;;;;5.93;4.67;;;;;;;25.17;38.26;99742.00;4907102;29;20245;-77
2022/05/05 11:22:45;;;;;;;7.00;4.70;;;;;;;25.90;36.31;99746.41;5003601;28;20793;-79
2022/05/05 11:25:11;;;;;;;5.53;4.38;;;;;;;25.08;35.84;99666.06;4990094;28;20647;-81
2022/05/05 11:27:36;;;;;;;8.57;4.97;;;;;;;25.27;36.91;99791.16;4989212;28;20189;-79
2022/05/05 11:30:03;;;;;;;7.32;4.78;;;;;;;25.18;38.10;99800.75;4989212;28;20185;-81
2022/05/05 11:32:30;;;;;;;5.18;4.30;;;;;;;25.81;36.13;99790.63;5004168;28;20549;-80
2022/05/05 11:34:55;;;;;;;10.02;4.82;;;;;;;25.86;36.38;99756.81;5008651;28;20200;-79
2022/05/05 11:37:24;;;;;;;8.05;5.22;;;;;;;26.64;35.35;99792.13;5008589;28;20189;-80
2022/05/05 11:39:50;;;;;;;4.85;3.92;;;;;;;26.18;33.63;99648.25;5008694;28;20223;-79
2022/05/05 11:42:15;;;;;;;5.53;4.18;;;;;;;26.58;33.88;99754.97;5006365;28;20664;-82
2022/05/05 11:44:43;;;;;;;6.65;3.65;;;;;;;27.29;32.39;99770.28;5010589;28;20552;-81
2022/05/05 11:47:16;;;;;;;7.30;4.68;;;;;;;27.67;32.72;99789.53;5010231;28;20184;-80
2022/05/05 11:49:48;;;;;;;7.35;4.15;;;;;;;27.70;32.57;99745.25;5010187;28;20229;-79
2022/05/05 11:52:22;;;;;;;8.30;4.20;;;;;;;27.79;31.39;99760.69;5001632;28;20187;-79
2022/05/05 11:54:49;;;;;;;6.28;3.97;;;;;;;26.89;32.08;99790.03;5006710;28;20192;-85
2022/05/05 11:57:34;;;;;;;6.30;3.95;;;;;;;27.12;32.99;99759.31;5009994;28;20196;-85
2022/05/05 12:02:44;;;;;;;5.15;4.00;;;;;;;27.47;31.44;99751.75;4992399;28;20205;-86
2022/05/05 12:05:09;;;;;;;6.75;4.18;;;;;;;27.32;32.34;99757.22;5012246;28;20578;-85
2022/05/05 12:07:35;;;;;;;5.68;4.18;;;;;;;27.20;32.32;99779.97;5011389;28;20193;-85
2022/05/05 12:10:07;;;;;;;4.40;3.97;;;;;;;27.02;31.81;99642.53;5013321;28;20183;-85